createdAt,value
2022-12-09T00:01:32.937Z,96.49
2022-12-09T00:05:34.310Z,97.46
2022-12-09T00:09:35.988Z,96.92
2022-12-09T00:13:37.906Z,97.05
2022-12-09T00:17:39.207Z,96.48
2022-12-09T00:21:41.459Z,96.23
2022-12-09T00:25:42.934Z,96.75
2022-12-09T00:29:44.329Z,96.58
2022-12-09T00:33:46.419Z,97.18
2022-12-09T00:37:47.918Z,96.67
2022-12-09T00:41:49.914Z,97.04
2022-12-09T00:45:51.411Z,97.88
2022-12-09T00:49:52.755Z,97.32
2022-12-09T00:53:55.886Z,97.34
2022-12-09T00:57:57.741Z,97.17
2022-12-09T01:01:59.295Z,96.61
2022-12-09T01:06:01.155Z,97.03
2022-12-09T01:10:02.638Z,96.80
2022-12-09T01:14:04.186Z,96.36
2022-12-09T01:18:06.697Z,97.51
2022-12-09T01:22:07.977Z,97.35
2022-12-09T01:26:09.684Z,97.58
2022-12-09T01:30:12.967Z,97.86
2022-12-09T01:34:15.053Z,97.67
2022-12-09T01:38:16.540Z,97.29
2022-12-09T01:42:19.361Z,97.90
2022-12-09T01:46:21.061Z,97.32
2022-12-09T01:50:22.938Z,97.65
2022-12-09T01:54:25.866Z,97.25
2022-12-09T01:58:27.829Z,96.79
2022-12-09T02:02:30.541Z,97.25
2022-12-09T02:06:32.118Z,96.90
2022-12-09T02:10:36.653Z,96.10
2022-12-09T02:14:50.611Z,96.08
2022-12-09T02:18:57.939Z,96.21
2022-12-09T02:22:59.374Z,96.05
2022-12-09T02:27:17.162Z,96.02
2022-12-09T02:31:35.113Z,95.46
2022-12-09T02:35:43.970Z,95.59
2022-12-09T02:40:06.147Z,95.58
2022-12-09T02:44:10.649Z,96.01
2022-12-09T02:48:14.340Z,96.24
2022-12-09T02:52:16.783Z,95.82
2022-12-09T02:56:19.315Z,96.06
2022-12-09T03:00:20.758Z,95.85
2022-12-09T03:04:24.152Z,96.05
2022-12-09T03:08:28.564Z,96.40
2022-12-09T03:12:33.168Z,97.03
2022-12-09T03:16:34.858Z,97.28
2022-12-09T03:20:38.722Z,97.67
2022-12-09T03:24:44.917Z,97.32
2022-12-09T03:28:49.219Z,97.62
2022-12-09T03:32:51.581Z,97.69
2022-12-09T03:36:53.389Z,98.14
2022-12-09T03:41:03.436Z,98.48
2022-12-09T03:45:11.047Z,99.05
2022-12-09T03:49:12.955Z,99.19
2022-12-09T03:53:16.297Z,99.07
2022-12-09T03:57:19.237Z,99.71
2022-12-09T04:01:23.633Z,99.51
2022-12-09T04:05:25.293Z,99.03
2022-12-09T04:09:27.075Z,98.96
2022-12-09T04:13:28.770Z,99.12
2022-12-09T04:17:30.696Z,98.76
2022-12-09T04:21:32.385Z,98.72
2022-12-09T04:25:33.691Z,99.09
2022-12-09T04:29:35.264Z,98.91
2022-12-09T04:33:36.560Z,98.51
2022-12-09T04:37:38.115Z,98.57
2022-12-09T04:41:39.741Z,98.21
2022-12-09T04:45:41.315Z,97.65
2022-12-09T04:49:42.899Z,97.54
2022-12-09T04:53:44.592Z,97.86
2022-12-09T04:57:46.068Z,98.00
2022-12-09T05:01:47.754Z,97.26
2022-12-09T05:05:50.715Z,97.91
2022-12-09T05:09:52.312Z,96.89
2022-12-09T05:13:54.655Z,97.37
2022-12-09T05:17:57.581Z,96.81
2022-12-09T05:21:59.444Z,97.04
2022-12-09T05:26:04.717Z,96.67
2022-12-09T05:30:07.420Z,96.65
2022-12-09T05:34:09.296Z,96.95
2022-12-09T05:38:10.751Z,97.09
2022-12-09T05:42:12.204Z,96.60
2022-12-09T05:46:14.785Z,96.47
2022-12-09T05:50:16.714Z,96.78
2022-12-09T05:54:18.721Z,96.07
2022-12-09T05:58:20.637Z,96.30
2022-12-09T06:02:22.683Z,96.31
2022-12-09T06:06:26.880Z,95.90
2022-12-09T06:10:29.654Z,96.10
2022-12-09T06:14:31.400Z,96.13
2022-12-09T06:18:33.191Z,95.12
2022-12-09T06:22:36.476Z,94.81
2022-12-09T06:26:38.227Z,95.14
2022-12-09T06:30:40.120Z,94.96
2022-12-09T06:34:42.179Z,94.97
2022-12-09T06:38:43.887Z,95.19
2022-12-09T06:42:45.297Z,94.68
2022-12-09T06:46:46.598Z,94.65
2022-12-09T06:50:50.362Z,94.78
2022-12-09T06:54:51.844Z,95.04
2022-12-09T06:58:53.563Z,95.05
2022-12-09T07:02:55.644Z,94.92
2022-12-09T07:06:57.338Z,95.22
2022-12-09T07:10:59.484Z,95.51
2022-12-09T07:15:01.344Z,95.78
2022-12-09T07:19:05.448Z,96.29
2022-12-09T07:23:07.179Z,96.63
2022-12-09T07:27:14.271Z,96.47
2022-12-09T07:31:19.392Z,96.62
2022-12-09T07:35:21.043Z,97.03
2022-12-09T07:39:22.976Z,96.90
2022-12-09T07:43:24.381Z,96.91
2022-12-09T07:47:26.391Z,97.08
2022-12-09T07:51:29.800Z,96.97
2022-12-09T07:55:33.235Z,96.81
2022-12-09T07:59:34.899Z,96.40
2022-12-09T08:03:36.908Z,96.64
2022-12-09T08:07:43.888Z,96.55
2022-12-09T08:11:46.505Z,96.75
2022-12-09T08:15:48.771Z,96.26
2022-12-09T08:19:51.061Z,96.24
2022-12-09T08:23:54.957Z,96.31
2022-12-09T08:27:56.432Z,96.42
2022-12-09T08:31:57.854Z,96.66
2022-12-09T08:36:00.547Z,96.55
2022-12-09T08:40:02.185Z,96.80
2022-12-09T08:44:05.525Z,96.76
2022-12-09T08:48:07.842Z,96.51
2022-12-09T08:52:09.525Z,96.47
2022-12-09T08:56:12.100Z,96.22
2022-12-09T09:00:15.156Z,96.23
2022-12-09T09:04:19.177Z,96.35
2022-12-09T09:08:21.238Z,96.25
2022-12-09T09:12:23.371Z,96.40
2022-12-09T09:16:26.654Z,96.53
2022-12-09T09:20:28.320Z,96.50
2022-12-09T09:24:31.975Z,96.11
2022-12-09T09:28:33.625Z,95.99
2022-12-09T09:32:35.601Z,95.62
2022-12-09T09:36:37.612Z,95.64
2022-12-09T09:40:40.725Z,94.87
2022-12-09T09:44:46.428Z,94.72
2022-12-09T09:48:48.574Z,94.34
2022-12-09T09:52:52.555Z,93.91
2022-12-09T09:56:58.013Z,93.60
2022-12-09T10:01:04.188Z,92.74
2022-12-09T10:10:40.079Z,92.25
2022-12-09T10:14:51.436Z,92.78
2022-12-09T10:19:10.552Z,92.62
2022-12-09T10:27:36.600Z,92.07
2022-12-09T10:31:38.920Z,91.20
2022-12-09T10:35:40.649Z,91.49
2022-12-09T10:39:42.691Z,90.64
2022-12-09T10:43:44.721Z,90.81
2022-12-09T10:47:50.674Z,90.75
2022-12-09T10:51:54.094Z,91.32
2022-12-09T10:55:59.019Z,92.04
2022-12-09T11:00:03.987Z,92.22
2022-12-09T11:04:12.399Z,92.09
2022-12-09T11:08:24.137Z,92.09
2022-12-09T11:12:33.476Z,91.51
2022-12-09T11:16:40.092Z,91.21
2022-12-09T11:20:42.084Z,91.18
2022-12-09T11:24:44.370Z,91.32
2022-12-09T11:28:58.845Z,91.14
2022-12-09T11:33:01.097Z,90.16
2022-12-09T11:37:02.971Z,89.87
2022-12-09T11:41:13.847Z,89.84
2022-12-09T11:45:31.571Z,89.54
2022-12-09T11:50:04.964Z,88.75
2022-12-09T11:54:14.732Z,88.27
2022-12-09T11:58:23.531Z,88.03
2022-12-09T12:02:29.251Z,88.13
2022-12-09T12:06:41.341Z,87.27
2022-12-09T12:10:44.603Z,87.39
2022-12-09T12:14:47.034Z,86.89
2022-12-09T12:19:04.130Z,86.74
2022-12-09T12:23:06.296Z,86.42
2022-12-09T12:27:20.735Z,85.67
2022-12-09T12:31:33.271Z,84.83
2022-12-09T12:35:35.191Z,84.98
2022-12-09T12:39:50.059Z,84.85
2022-12-09T12:44:13.027Z,84.96
2022-12-09T12:48:47.192Z,84.65
2022-12-09T12:52:59.578Z,83.61
2022-12-09T12:57:09.295Z,82.92
2022-12-09T13:01:25.182Z,82.90
2022-12-09T13:05:31.911Z,82.91
2022-12-09T13:09:41.834Z,83.03
2022-12-09T13:13:46.581Z,82.54
2022-12-09T13:17:48.293Z,81.64
2022-12-09T13:21:50.356Z,81.76
2022-12-09T13:26:10.648Z,81.84
2022-12-09T13:30:20.434Z,82.10
2022-12-09T13:34:32.400Z,82.14
2022-12-09T13:38:37.328Z,81.55
2022-12-09T13:42:58.874Z,80.84
2022-12-09T13:47:19.398Z,80.86
2022-12-09T13:51:44.076Z,80.48
2022-12-09T13:55:56.149Z,80.66
2022-12-09T14:00:01.297Z,80.83
2022-12-09T14:04:08.674Z,80.30
2022-12-09T14:08:20.849Z,80.23
2022-12-09T14:12:25.230Z,80.18
2022-12-09T14:16:26.470Z,79.92
2022-12-09T14:20:36.334Z,80.27
2022-12-09T14:24:39.212Z,80.28
2022-12-09T14:28:53.171Z,80.70
2022-12-09T14:32:55.276Z,80.46
2022-12-09T14:37:15.363Z,80.05
2022-12-09T14:41:29.699Z,80.16
2022-12-09T14:45:37.271Z,79.59
2022-12-09T14:49:48.299Z,80.23
2022-12-09T14:53:53.907Z,80.25
2022-12-09T14:57:57.294Z,80.77
2022-12-09T15:02:02.999Z,81.02
2022-12-09T15:06:05.795Z,81.75
2022-12-09T15:10:17.106Z,82.15
2022-12-09T15:14:27.564Z,82.01
2022-12-09T15:18:30.916Z,82.49
2022-12-09T15:22:32.834Z,82.69
2022-12-09T15:26:34.491Z,83.56
2022-12-09T15:30:36.863Z,83.26
2022-12-09T15:34:38.161Z,83.14
2022-12-09T15:38:45.675Z,83.30
2022-12-09T15:42:48.856Z,83.81
2022-12-09T15:46:51.299Z,84.20
2022-12-09T15:50:59.006Z,84.47
2022-12-09T15:55:06.632Z,84.92
2022-12-09T15:59:16.532Z,85.98
2022-12-09T16:03:32.004Z,86.96
2022-12-09T16:07:33.648Z,87.29
2022-12-09T16:11:36.381Z,87.36
2022-12-09T16:15:51.290Z,87.85
2022-12-09T16:19:53.207Z,88.48
2022-12-09T16:23:56.727Z,88.58
2022-12-09T16:28:00.079Z,88.76
2022-12-09T16:32:19.044Z,89.34
2022-12-09T16:36:23.747Z,89.10
2022-12-09T16:40:25.152Z,89.35
2022-12-09T16:44:31.043Z,88.95
2022-12-09T16:48:32.476Z,88.97
2022-12-09T16:52:34.167Z,89.12
2022-12-09T16:56:41.595Z,89.08
2022-12-09T17:00:42.917Z,89.63
2022-12-09T17:04:44.481Z,89.23
2022-12-09T17:08:45.949Z,89.23
2022-12-09T17:12:47.644Z,90.26
2022-12-09T17:16:49.113Z,90.41
2022-12-09T17:20:50.961Z,90.98
2022-12-09T17:24:52.468Z,91.22
2022-12-09T17:28:59.800Z,91.23
2022-12-09T17:33:03.022Z,91.61
2022-12-09T17:37:04.361Z,91.13
2022-12-09T17:41:06.613Z,91.64
2022-12-09T17:45:08.487Z,91.61
2022-12-09T17:49:09.989Z,91.49
2022-12-09T17:53:11.383Z,92.12
2022-12-09T17:57:12.696Z,92.16
2022-12-09T18:01:15.432Z,92.31
2022-12-09T18:05:16.817Z,92.49
2022-12-09T18:09:18.484Z,92.37
2022-12-09T18:13:19.779Z,92.60
2022-12-09T18:17:21.139Z,92.71
2022-12-09T18:21:23.756Z,92.89
2022-12-09T18:25:25.372Z,92.88
2022-12-09T18:29:26.707Z,92.84
2022-12-09T18:33:28.159Z,92.94
2022-12-09T18:37:30.428Z,92.99
2022-12-09T18:41:32.525Z,92.82
2022-12-09T18:45:34.499Z,93.53
2022-12-09T18:49:37.000Z,93.76
2022-12-09T18:53:38.308Z,93.76
2022-12-09T18:57:39.619Z,93.75
2022-12-09T19:01:42.450Z,93.95
2022-12-09T19:05:44.717Z,94.04
2022-12-09T19:09:46.038Z,93.98
2022-12-09T19:13:47.767Z,93.80
2022-12-09T19:17:49.047Z,94.35
2022-12-09T19:21:51.119Z,93.99
2022-12-09T19:25:52.404Z,94.46
2022-12-09T19:29:53.722Z,94.26
2022-12-09T19:33:56.052Z,93.90
2022-12-09T19:38:01.398Z,93.93
2022-12-09T19:42:05.198Z,94.06
2022-12-09T19:46:07.927Z,94.17
2022-12-09T19:50:09.575Z,93.88
2022-12-09T19:54:11.230Z,94.25
2022-12-09T19:58:12.831Z,94.28
2022-12-09T20:02:14.978Z,94.59
2022-12-09T20:06:17.431Z,94.71
2022-12-09T20:10:19.086Z,94.84
2022-12-09T20:14:20.500Z,94.68
2022-12-09T20:18:22.426Z,94.63
2022-12-09T20:22:23.759Z,94.74
2022-12-09T20:26:36.017Z,94.43
2022-12-09T20:30:37.324Z,94.34
2022-12-09T20:34:38.872Z,94.19
2022-12-09T20:38:40.609Z,94.49
2022-12-09T20:42:42.043Z,94.74
2022-12-09T20:46:47.859Z,94.83
2022-12-09T20:50:49.331Z,94.75
2022-12-09T20:54:50.847Z,94.73
2022-12-09T20:58:53.719Z,94.85
2022-12-09T21:02:55.210Z,95.15
2022-12-09T21:06:57.284Z,95.06
2022-12-09T21:11:09.537Z,94.93
2022-12-09T21:15:11.911Z,95.49
2022-12-09T21:19:14.831Z,95.47
2022-12-09T21:23:33.296Z,94.91
2022-12-09T21:27:35.702Z,95.17
2022-12-09T21:31:37.913Z,94.98
2022-12-09T21:35:44.023Z,95.37
2022-12-09T21:39:45.322Z,95.32
2022-12-09T21:43:47.002Z,95.08
2022-12-09T21:47:48.691Z,95.13
2022-12-09T21:51:49.989Z,95.20
2022-12-09T21:55:52.396Z,94.96
2022-12-09T21:59:53.648Z,94.72
2022-12-09T22:03:55.872Z,94.99
2022-12-09T22:07:57.726Z,94.96
2022-12-09T22:11:59.183Z,94.99
2022-12-09T22:16:05.029Z,95.14
2022-12-09T22:20:54.286Z,94.84
2022-12-09T22:24:29.023Z,94.45
2022-12-09T22:28:30.491Z,94.63
2022-12-09T22:32:34.370Z,94.23
2022-12-09T22:36:40.963Z,94.11
2022-12-09T22:40:42.679Z,93.92
2022-12-09T22:44:44.375Z,93.79
2022-12-09T22:48:45.866Z,93.75
2022-12-09T22:52:47.435Z,93.23
2022-12-09T22:56:48.944Z,93.24
2022-12-09T23:00:50.596Z,92.75
2022-12-09T23:04:52.092Z,91.95
2022-12-09T23:08:53.414Z,92.14
2022-12-09T23:12:54.676Z,91.82
2022-12-09T23:16:56.344Z,91.49
2022-12-09T23:21:02.475Z,91.68
2022-12-09T23:25:04.592Z,90.95
2022-12-09T23:29:08.556Z,90.96
2022-12-09T23:33:10.217Z,91.45
2022-12-09T23:37:12.573Z,91.37
2022-12-09T23:41:15.032Z,91.40
2022-12-09T23:45:16.500Z,92.18
2022-12-09T23:49:18.025Z,91.91
2022-12-09T23:53:19.396Z,92.18
2022-12-09T23:57:20.676Z,92.17
